Estación Meteorológica Peña el Pijo (Robertgarden) [ 07/24/17 22:44:05 CEST ]

Fecha Hora Presion(HPa) Temp (°C) Humedad % Rocio (°C) Viento ( m/s) Direccion Lluvia 1Hora(mm) Lluvia 24H(mm) LLuvia Total(mm)
2017-May-14 01:01:31 1013.400 9.5 71 4.5         1390.83
2017-May-14 02:01:44 1013.700 8.9 75 4.7         1390.83
2017-May-14 03:01:41 1013.400 8.1 76 4.1         1390.83
2017-May-14 04:01:41 1013.400 7.1 79 3.7         1390.83
2017-May-14 05:01:40 1013.600 6.2 81 3.2         1390.83
2017-May-14 06:01:40 1013.700 5.6 82 2.7         1390.83
2017-May-14 07:02:00 1014.300 5.8 83 3.1         1390.83
2017-May-14 08:01:52 1015.200 6.3 84 3.8         1390.83
2017-May-14 09:01:48 1015.600 11.8 83 9.0         1390.83
2017-May-14 10:01:58 1015.700 15.9 69 10.3         1390.83
2017-May-14 11:01:50 1015.900 21.6 44 8.8         1390.83
2017-May-14 12:02:09 1015.800 23.2 40 8.9         1390.83
2017-May-14 13:01:46 1015.700 25.8 35 9.1         1390.83
2017-May-14 14:02:03 1015.600 23.9 33 6.6         1390.83
2017-May-14 15:01:51 1015.400 26.5 30 7.5         1390.83
2017-May-14 16:01:42 1015.300 25.1 33 7.6         1390.83
2017-May-14 17:01:47 1014.800 27.4 30 8.3         1390.83
2017-May-14 18:01:42 1014.800 26.1 33 8.5         1390.83
2017-May-14 19:01:52 1015.100 21.8 39 7.2         1390.83
2017-May-14 20:01:51 1015.500 20.2 44 7.5         1390.83
2017-May-14 21:01:47 1016.200 18.6 49 7.7         1390.83
2017-May-14 22:01:38 1016.900 16.9 54 7.5         1390.83
2017-May-14 23:01:37 1017.500 14.8 61 7.3         1390.83

Temperatura Máxima:27°    Temperatura Mínima:
Presión Máxima:1017.500 Hpa    Presión Mínima:1013.400 Hpa


Volver